Observations for CROTONE, Italy (LIBC)

LIBC 201850Z 28002KT CAVOK 08/05 Q1024  
LIBC 201750Z 30003KT CAVOK 09/05 Q1024  
LIBC 201650Z 01003KT CAVOK 11/07 Q1023  
LIBC 201550Z 02004KT CAVOK 11/07 Q1023  
LIBC 201450Z 03005KT CAVOK 13/07 Q1023  
LIBC 201350Z 03005KT CAVOK 13/07 Q1023  
LIBC 201250Z 04007KT CAVOK 10/80 Q1023  
LIBC 201150Z 03008KT CAVOK 13/07 Q1023  
LIBC 201050Z 02007KT CAVOK 13/08 Q1023  
LIBC 200950Z 02006KT CAVOK 13/09 Q1023  
LIBC 200850Z 01007KT CAVOK 12/08 Q1023  
LIBC 200750Z 36005KT CAVOK 11/06 Q1023  
LIBC 200700Z 00000KT CAVOK 09/07 Q1023